createdAt,value
2016-11-19T00:00:17.692Z,77.21
2016-11-19T00:01:17.795Z,76.54
2016-11-19T00:02:17.827Z,76.92
2016-11-19T00:03:17.844Z,76.06
2016-11-19T00:04:17.999Z,76.82
2016-11-19T00:05:17.949Z,77.31
2016-11-19T00:06:17.998Z,76.82
2016-11-19T00:07:18.058Z,76.92
2016-11-19T00:08:18.141Z,76.89
2016-11-19T00:09:18.225Z,76.73
2016-11-19T00:10:18.217Z,77.11
2016-11-19T00:11:18.230Z,78.13
2016-11-19T00:12:18.285Z,77.94
2016-11-19T00:13:18.349Z,78.03
2016-11-19T00:14:18.437Z,77.94
2016-11-19T00:15:18.432Z,78.03
2016-11-19T00:16:19.012Z,78.13
2016-11-19T00:17:18.536Z,78.22
2016-11-19T00:18:18.574Z,77.46
2016-11-19T00:19:18.659Z,77.55
2016-11-19T00:20:18.690Z,78.03
2016-11-19T00:21:18.713Z,77.84
2016-11-19T00:22:18.753Z,77.26
2016-11-19T00:23:18.845Z,77.08
2016-11-19T00:24:18.878Z,76.98
2016-11-19T00:25:18.918Z,76.6
2016-11-19T00:26:18.970Z,76.44
2016-11-19T00:27:19.029Z,76.06
2016-11-19T00:28:19.094Z,76.44
2016-11-19T00:29:19.662Z,76.73
2016-11-19T00:30:19.280Z,76.82
2016-11-19T00:31:19.240Z,76.35
2016-11-19T00:32:19.778Z,76.44
2016-11-19T00:33:19.324Z,76.79
2016-11-19T00:34:19.361Z,77.26
2016-11-19T00:35:19.492Z,78.19
2016-11-19T00:36:19.451Z,78.32
2016-11-19T00:37:19.485Z,78.61
2016-11-19T00:38:19.546Z,78.57
2016-11-19T00:39:19.590Z,78.8
2016-11-19T00:40:19.674Z,78.19
2016-11-19T00:41:19.715Z,78.42
2016-11-19T00:42:19.733Z,77.94
2016-11-19T00:43:19.809Z,77.84
2016-11-19T00:44:19.849Z,78.13
2016-11-19T00:45:20.444Z,76.98
2016-11-19T00:46:19.960Z,76.98
2016-11-19T00:47:20.010Z,77.17
2016-11-19T00:48:20.063Z,77.17
2016-11-19T00:49:20.127Z,76.6
2016-11-19T00:50:20.126Z,76.5
2016-11-19T00:51:20.202Z,76.69
2016-11-19T00:52:20.243Z,76.4
2016-11-19T00:53:20.291Z,76.4
2016-11-19T00:54:20.402Z,76.21
2016-11-19T00:55:20.388Z,76.35
2016-11-19T00:56:20.469Z,76.25
2016-11-19T00:57:20.489Z,76.54
2016-11-19T00:58:21.055Z,76.44
2016-11-19T00:59:20.577Z,76.73
2016-11-19T01:00:20.657Z,76.73
2016-11-19T01:01:20.999Z,76.25
2016-11-19T01:02:20.729Z,76.79
2016-11-19T01:03:20.769Z,76.89
2016-11-19T01:04:20.831Z,77.11
2016-11-19T01:05:20.888Z,76.92
2016-11-19T01:06:21.228Z,77.26
2016-11-19T01:07:20.974Z,77.08
2016-11-19T01:08:21.023Z,76.89
2016-11-19T01:09:21.091Z,77.75
2016-11-19T01:10:21.112Z,78.42
2016-11-19T01:11:21.201Z,78.42
2016-11-19T01:12:21.213Z,78.13
2016-11-19T01:13:21.301Z,78.42
2016-11-19T01:14:21.346Z,77.94
2016-11-19T01:15:21.379Z,78.03
2016-11-19T01:16:21.396Z,78.03
2016-11-19T01:17:21.466Z,78.13
2016-11-19T01:18:21.513Z,77.26
2016-11-19T01:19:21.550Z,77.65
2016-11-19T01:20:21.612Z,77.36
2016-11-19T01:21:22.199Z,77.08
2016-11-19T01:22:21.737Z,77.26
2016-11-19T01:23:21.747Z,77.26
2016-11-19T01:24:21.787Z,78.03
2016-11-19T01:25:21.860Z,78.03
2016-11-19T01:26:21.884Z,77.46
2016-11-19T01:27:22.225Z,77.94
2016-11-19T01:28:21.987Z,78.03
2016-11-19T01:29:22.061Z,77.46
2016-11-19T01:30:22.101Z,77.84
2016-11-19T01:31:22.122Z,77.94
2016-11-19T01:32:23.033Z,78.22
2016-11-19T01:33:22.219Z,78.8
2016-11-19T01:34:22.272Z,78.32
2016-11-19T01:35:22.350Z,78.03
2016-11-19T01:36:22.396Z,78.03
2016-11-19T01:37:22.736Z,78.8
2016-11-19T01:38:22.465Z,78.22
2016-11-19T01:39:22.520Z,78.03
2016-11-19T01:40:22.560Z,78.47
2016-11-19T01:41:22.632Z,78.38
2016-11-19T01:42:23.200Z,78.28
2016-11-19T01:43:22.728Z,78.38
2016-11-19T01:44:22.746Z,78.19
2016-11-19T01:45:22.817Z,78.47
2016-11-19T01:46:22.860Z,78.32
2016-11-19T01:47:22.930Z,77.9
2016-11-19T01:48:23.483Z,76.98
2016-11-19T01:49:22.989Z,77.26
2016-11-19T01:50:23.048Z,77.75
2016-11-19T01:51:23.125Z,78.13
2016-11-19T01:52:23.184Z,78.13
2016-11-19T01:53:23.196Z,77.94
2016-11-19T01:54:23.244Z,77.9
2016-11-19T01:55:23.316Z,78.57
2016-11-19T01:56:23.335Z,78.57
2016-11-19T01:57:23.426Z,78.28
2016-11-19T01:58:23.745Z,78.47
2016-11-19T01:59:23.469Z,78.28
2016-11-19T02:00:23.538Z,78.28
2016-11-19T02:01:23.612Z,78.19
2016-11-19T02:02:23.649Z,77.94
2016-11-19T02:03:23.808Z,78.38
2016-11-19T02:04:23.724Z,78.19
2016-11-19T02:05:23.788Z,79.05
2016-11-19T02:06:23.858Z,78.57
2016-11-19T02:07:23.891Z,79.05
2016-11-19T02:08:24.047Z,78.38
2016-11-19T02:09:23.975Z,78.95
2016-11-19T02:10:24.030Z,78.95
2016-11-19T02:11:24.130Z,79.72
2016-11-19T02:12:24.123Z,78.86
2016-11-19T02:13:24.156Z,79.08
2016-11-19T02:14:24.235Z,78.76
2016-11-19T02:15:24.281Z,78.7
2016-11-19T02:16:24.328Z,78.51
2016-11-19T02:17:24.363Z,78.66
2016-11-19T02:18:24.382Z,78.86
2016-11-19T02:19:24.485Z,78.7
2016-11-19T02:20:24.521Z,78.38
2016-11-19T02:21:24.576Z,78.42
2016-11-19T02:22:24.636Z,78.7
2016-11-19T02:23:24.657Z,78.51
2016-11-19T02:24:24.686Z,78.61
2016-11-19T02:25:24.762Z,78.38
2016-11-19T02:26:24.814Z,78.22
2016-11-19T02:27:24.858Z,78.42
2016-11-19T02:28:24.911Z,78.22
2016-11-19T02:29:24.944Z,78.42
2016-11-19T02:30:24.984Z,78.61
2016-11-19T02:31:25.049Z,78.38
2016-11-19T02:32:25.082Z,78.99
2016-11-19T02:33:25.113Z,78.66
2016-11-19T02:34:25.288Z,78.86
2016-11-19T02:35:25.208Z,78.76
2016-11-19T02:36:25.313Z,79.24
2016-11-19T02:37:25.357Z,78.8
2016-11-19T02:38:25.373Z,79.43
2016-11-19T02:39:25.549Z,78.8
2016-11-19T02:40:25.482Z,79.08
2016-11-19T02:41:25.509Z,78.89
2016-11-19T02:42:25.588Z,79.57
2016-11-19T02:43:25.597Z,79.18
2016-11-19T02:44:25.812Z,79.18
2016-11-19T02:45:25.742Z,78.95
2016-11-19T02:46:25.792Z,78.99
2016-11-19T02:47:25.826Z,79.18
2016-11-19T02:48:25.872Z,78.51
2016-11-19T02:49:25.890Z,78.61
2016-11-19T02:50:25.957Z,78.8
2016-11-19T02:51:25.980Z,79.18
2016-11-19T02:52:26.089Z,79.18
2016-11-19T02:53:26.125Z,78.99
2016-11-19T02:54:26.165Z,78.8
2016-11-19T02:55:26.217Z,79.05
2016-11-19T02:56:26.251Z,79.62
2016-11-19T02:57:26.291Z,80.19
2016-11-19T02:58:26.329Z,80.1
2016-11-19T02:59:26.422Z,80.19
2016-11-19T03:00:26.447Z,80.38
2016-11-19T03:01:26.496Z,80.48
2016-11-19T03:02:27.078Z,80.19
2016-11-19T03:03:26.599Z,80.29
2016-11-19T03:04:26.621Z,80
2016-11-19T03:05:26.789Z,80.1
2016-11-19T03:06:26.743Z,80.77
2016-11-19T03:07:26.769Z,80.77
2016-11-19T03:08:26.842Z,80.87
2016-11-19T03:09:26.862Z,80.77
2016-11-19T03:10:27.003Z,80.29
2016-11-19T03:11:26.958Z,80.29
2016-11-19T03:12:27.024Z,80.29
2016-11-19T03:13:27.652Z,80.19
2016-11-19T03:14:27.140Z,79.81
2016-11-19T03:15:27.160Z,79.81
2016-11-19T03:16:27.246Z,79.62
2016-11-19T03:17:27.253Z,79.91
2016-11-19T03:18:27.323Z,79.81
2016-11-19T03:19:27.374Z,79.81
2016-11-19T03:20:27.452Z,79.62
2016-11-19T03:21:27.478Z,80.1
2016-11-19T03:22:27.497Z,79.91
2016-11-19T03:23:27.545Z,79.62
2016-11-19T03:24:27.610Z,79.62
2016-11-19T03:25:27.635Z,80.48
2016-11-19T03:26:27.720Z,80.35
2016-11-19T03:27:27.765Z,80.48
2016-11-19T03:28:27.794Z,80
2016-11-19T03:29:27.865Z,79.62
2016-11-19T03:30:27.881Z,78.95
2016-11-19T03:31:28.614Z,79.05
2016-11-19T03:32:27.998Z,79.24
2016-11-19T03:33:28.077Z,78.86
2016-11-19T03:34:28.097Z,79.43
2016-11-19T03:35:28.126Z,78.95
2016-11-19T03:36:28.291Z,79.14
2016-11-19T03:37:28.225Z,79.05
2016-11-19T03:38:28.277Z,80
2016-11-19T03:39:28.355Z,79.91
2016-11-19T03:40:28.404Z,80.1
2016-11-19T03:41:28.536Z,79.81
2016-11-19T03:42:28.505Z,79.72
2016-11-19T03:43:28.521Z,79.81
2016-11-19T03:44:28.552Z,79.43
2016-11-19T03:45:28.632Z,79.52
2016-11-19T03:46:28.650Z,79.72
2016-11-19T03:47:28.731Z,79.81
2016-11-19T03:48:28.814Z,79.05
2016-11-19T03:49:28.826Z,79.05
2016-11-19T03:50:28.839Z,80
2016-11-19T03:51:28.931Z,79.62
2016-11-19T03:52:28.978Z,79.91
2016-11-19T03:53:29.014Z,79.43
2016-11-19T03:54:29.050Z,79.62
2016-11-19T03:55:29.135Z,79.43
2016-11-19T03:56:29.152Z,79.43
2016-11-19T03:57:29.203Z,80.29
2016-11-19T03:58:29.244Z,79.81
2016-11-19T03:59:29.300Z,80.38
2016-11-19T04:00:29.349Z,80.1
2016-11-19T04:01:29.383Z,80.77
2016-11-19T04:02:29.539Z,80.67
2016-11-19T04:03:29.485Z,81.15
2016-11-19T04:04:29.569Z,81.54
2016-11-19T04:05:29.597Z,81.15
2016-11-19T04:06:29.642Z,81.59
2016-11-19T04:07:29.759Z,81.02
2016-11-19T04:08:29.758Z,81.73
2016-11-19T04:09:29.760Z,81.44
2016-11-19T04:10:29.837Z,81.3
2016-11-19T04:11:29.874Z,81.68
2016-11-19T04:12:30.049Z,81.21
2016-11-19T04:13:29.985Z,81.88
2016-11-19T04:14:30.013Z,81.21
2016-11-19T04:15:30.587Z,81.34
2016-11-19T04:16:30.155Z,81.44
2016-11-19T04:17:30.168Z,81.54
2016-11-19T04:18:30.222Z,81.15
2016-11-19T04:19:30.252Z,81.15
2016-11-19T04:20:30.323Z,81.54
2016-11-19T04:21:30.876Z,81.15
2016-11-19T04:22:30.415Z,81.92
2016-11-19T04:23:30.453Z,81.54
2016-11-19T04:24:30.494Z,81.05
2016-11-19T04:25:30.600Z,81.25
2016-11-19T04:26:30.612Z,81.92
2016-11-19T04:27:30.646Z,81.54
2016-11-19T04:28:30.706Z,81.05
2016-11-19T04:29:30.721Z,80.58
2016-11-19T04:30:30.793Z,81.54
2016-11-19T04:31:30.845Z,81.15
2016-11-19T04:32:30.893Z,81.44
2016-11-19T04:33:30.943Z,81.73
2016-11-19T04:34:31.007Z,81.73
2016-11-19T04:35:31.033Z,82.49
2016-11-19T04:36:31.087Z,83.12
2016-11-19T04:37:31.164Z,83.54
2016-11-19T04:38:31.199Z,83.73
2016-11-19T04:39:31.252Z,84.02
2016-11-19T04:40:31.274Z,84.94
2016-11-19T04:41:31.317Z,84.94
2016-11-19T04:42:31.389Z,85.27
2016-11-19T04:43:31.537Z,84.98
2016-11-19T04:44:31.482Z,85.51
2016-11-19T04:45:31.544Z,84.98
2016-11-19T04:46:31.557Z,85.22
2016-11-19T04:47:31.630Z,85.75
2016-11-19T04:48:31.774Z,85.17
2016-11-19T04:49:31.718Z,84.79
2016-11-19T04:50:31.765Z,85.51
2016-11-19T04:51:31.830Z,85.89
2016-11-19T04:52:31.879Z,86.57
2016-11-19T04:53:31.917Z,85.89
2016-11-19T04:54:31.957Z,86.76
2016-11-19T04:55:32.020Z,86.94
2016-11-19T04:56:32.040Z,87.14
2016-11-19T04:57:32.133Z,85.32
2016-11-19T04:58:32.194Z,85.89
2016-11-19T04:59:32.215Z,85.71
2016-11-19T05:00:32.237Z,86.66
2016-11-19T05:01:32.297Z,86.52
2016-11-19T05:02:32.354Z,86.47
2016-11-19T05:03:32.378Z,86.37
2016-11-19T05:04:32.446Z,86.76
2016-11-19T05:05:32.500Z,86.57
2016-11-19T05:06:32.548Z,85.99
2016-11-19T05:07:32.570Z,86.18
2016-11-19T05:08:32.627Z,86.18
2016-11-19T05:09:32.684Z,86.37
2016-11-19T05:10:32.742Z,86.28
2016-11-19T05:11:32.796Z,86.28
2016-11-19T05:12:32.833Z,85.61
2016-11-19T05:13:32.888Z,86.18
2016-11-19T05:14:33.015Z,86.18
2016-11-19T05:15:32.940Z,86.18
2016-11-19T05:16:33.013Z,86.66
2016-11-19T05:17:33.055Z,86.18
2016-11-19T05:18:33.154Z,86.66
2016-11-19T05:19:33.260Z,86.47
2016-11-19T05:20:33.201Z,86.57
2016-11-19T05:21:33.288Z,87.14
2016-11-19T05:22:33.305Z,86.57
2016-11-19T05:23:33.359Z,88
2016-11-19T05:24:33.382Z,86.85
2016-11-19T05:25:33.425Z,86.76
2016-11-19T05:26:33.509Z,87.43
2016-11-19T05:27:33.525Z,86.94
2016-11-19T05:28:33.597Z,86.94
2016-11-19T05:29:33.648Z,86.85
2016-11-19T05:30:33.685Z,86.57
2016-11-19T05:31:33.720Z,86.76
2016-11-19T05:32:33.784Z,86.37
2016-11-19T05:33:33.842Z,86.94
2016-11-19T05:34:33.904Z,86.85
2016-11-19T05:35:33.927Z,86.57
2016-11-19T05:36:33.955Z,87.52
2016-11-19T05:37:34.020Z,87.14
2016-11-19T05:38:34.080Z,86.47
2016-11-19T05:39:34.153Z,86.76
2016-11-19T05:40:34.204Z,85.22
2016-11-19T05:41:34.259Z,86.28
2016-11-19T05:42:34.272Z,86.37
2016-11-19T05:43:34.348Z,86.57
2016-11-19T05:44:34.366Z,86.94
2016-11-19T05:45:34.417Z,86.18
2016-11-19T05:46:34.471Z,87.14
2016-11-19T05:47:34.512Z,86.28
2016-11-19T05:48:34.564Z,86.28
2016-11-19T05:49:34.603Z,86.76
2016-11-19T05:50:34.680Z,86.28
2016-11-19T05:51:34.699Z,86.08
2016-11-19T05:52:34.785Z,86.37
2016-11-19T05:53:34.798Z,86.47
2016-11-19T05:54:34.877Z,86.37
2016-11-19T05:55:35.012Z,85.89
2016-11-19T05:56:34.960Z,85.22
2016-11-19T05:57:35.006Z,85.51
2016-11-19T05:58:35.042Z,85.22
2016-11-19T05:59:35.094Z,85.71
2016-11-19T06:00:35.217Z,85.22
2016-11-19T06:01:35.209Z,85.51
2016-11-19T06:02:35.267Z,86.37
2016-11-19T06:03:35.294Z,86.28
2016-11-19T06:04:35.316Z,87.04
2016-11-19T06:05:35.474Z,86.08
2016-11-19T06:06:35.401Z,85.32
2016-11-19T06:07:35.494Z,85.13
2016-11-19T06:08:35.521Z,85.32
2016-11-19T06:09:35.558Z,85.13
2016-11-19T06:10:35.616Z,85.13
2016-11-19T06:11:35.679Z,85.03
2016-11-19T06:12:35.696Z,85.13
2016-11-19T06:13:35.753Z,85.22
2016-11-19T06:14:35.827Z,85.13
2016-11-19T06:15:35.855Z,85.22
2016-11-19T06:16:35.919Z,84.88
2016-11-19T06:17:35.958Z,84.55
2016-11-19T06:18:35.984Z,84.02
2016-11-19T06:19:36.056Z,83.93
2016-11-19T06:20:36.107Z,83.79
2016-11-19T06:21:36.165Z,83.6
2016-11-19T06:22:36.179Z,84.27
2016-11-19T06:23:36.245Z,84.94
2016-11-19T06:24:36.327Z,84.94
2016-11-19T06:25:36.372Z,85.13
2016-11-19T06:26:36.476Z,84.46
2016-11-19T06:27:36.444Z,84.17
2016-11-19T06:28:36.463Z,84.27
2016-11-19T06:29:36.565Z,83.69
2016-11-19T06:30:36.614Z,83.22
2016-11-19T06:31:37.231Z,82.83
2016-11-19T06:32:36.715Z,83.12
2016-11-19T06:33:36.761Z,83.12
2016-11-19T06:34:36.829Z,83.22
2016-11-19T06:35:36.835Z,83.4
2016-11-19T06:36:36.859Z,82.83
2016-11-19T06:37:36.946Z,84.27
2016-11-19T06:38:36.943Z,84.13
2016-11-19T06:39:37.036Z,85.03
2016-11-19T06:40:37.071Z,84.32
2016-11-19T06:41:37.136Z,84.52
2016-11-19T06:42:37.189Z,84.08
2016-11-19T06:43:37.236Z,84.27
2016-11-19T06:44:37.253Z,84.23
2016-11-19T06:45:37.311Z,84.13
2016-11-19T06:46:37.341Z,84.65
2016-11-19T06:47:37.433Z,84.46
2016-11-19T06:48:37.988Z,84.65
2016-11-19T06:49:37.493Z,84.08
2016-11-19T06:50:37.547Z,83.98
2016-11-19T06:51:37.610Z,83.89
2016-11-19T06:52:37.623Z,83.22
2016-11-19T06:53:37.672Z,83.12
2016-11-19T06:54:37.730Z,83.31
2016-11-19T06:55:37.806Z,83.5
2016-11-19T06:56:37.867Z,83.79
2016-11-19T06:57:37.855Z,83.6
2016-11-19T06:58:37.956Z,83.5
2016-11-19T06:59:37.990Z,83.69
2016-11-19T07:00:38.008Z,83.79
2016-11-19T07:01:38.085Z,83.69
2016-11-19T07:02:38.240Z,83.6
2016-11-19T07:03:38.160Z,83.6
2016-11-19T07:04:38.191Z,82.83
2016-11-19T07:05:38.266Z,83.5
2016-11-19T07:06:38.302Z,83.22
2016-11-19T07:07:38.466Z,83.31
2016-11-19T07:08:38.413Z,83.79
2016-11-19T07:09:38.443Z,84.08
2016-11-19T07:10:38.485Z,84.17
2016-11-19T07:11:38.567Z,84.46
2016-11-19T07:12:38.695Z,84.52
2016-11-19T07:13:38.629Z,84.32
2016-11-19T07:14:38.677Z,84.61
2016-11-19T07:15:38.728Z,84.23
2016-11-19T07:16:38.799Z,84.03
2016-11-19T07:17:38.873Z,84.08
2016-11-19T07:18:38.864Z,84.55
2016-11-19T07:19:38.914Z,84.75
2016-11-19T07:20:39.504Z,83.98
2016-11-19T07:21:39.016Z,83.79
2016-11-19T07:22:39.075Z,84.23
2016-11-19T07:23:39.113Z,84.7
2016-11-19T07:24:39.185Z,83.98
2016-11-19T07:25:39.247Z,83.5
2016-11-19T07:26:39.280Z,84.27
2016-11-19T07:27:39.299Z,83.79
2016-11-19T07:28:39.368Z,83.12
2016-11-19T07:29:39.409Z,83.79
2016-11-19T07:30:39.473Z,83.6
2016-11-19T07:31:39.529Z,83.6
2016-11-19T07:32:39.558Z,83.69
2016-11-19T07:33:39.616Z,83.31
2016-11-19T07:34:39.638Z,83.27
2016-11-19T07:35:39.723Z,83.65
2016-11-19T07:36:39.740Z,83.27
2016-11-19T07:37:40.340Z,83.65
2016-11-19T07:38:39.856Z,84.03
2016-11-19T07:39:39.896Z,83.56
2016-11-19T07:40:40.479Z,83.65
2016-11-19T07:41:39.994Z,83.65
2016-11-19T07:42:40.042Z,82.83
2016-11-19T07:43:40.230Z,83.22
2016-11-19T07:44:40.169Z,82.83
2016-11-19T07:45:40.218Z,83.56
2016-11-19T07:46:40.274Z,83.08
2016-11-19T07:47:40.785Z,82.98
2016-11-19T07:48:40.451Z,83.31
2016-11-19T07:49:40.391Z,83.56
2016-11-19T07:50:40.437Z,83.56
2016-11-19T07:51:40.501Z,84.89
2016-11-19T07:52:40.531Z,84.89
2016-11-19T07:53:40.565Z,84.42
2016-11-19T07:54:40.634Z,84.42
2016-11-19T07:55:40.665Z,84.23
2016-11-19T07:56:40.734Z,84.8
2016-11-19T07:57:40.764Z,84.03
2016-11-19T07:58:40.812Z,83.94
2016-11-19T07:59:40.855Z,84.13
2016-11-19T08:00:40.923Z,83.37
2016-11-19T08:01:41.480Z,83.56
2016-11-19T08:02:41.020Z,83.37
2016-11-19T08:03:41.037Z,83.37
2016-11-19T08:04:41.081Z,82.89
2016-11-19T08:05:41.177Z,83.27
2016-11-19T08:06:41.196Z,82.98
2016-11-19T08:07:41.276Z,83.12
2016-11-19T08:08:41.311Z,82.7
2016-11-19T08:09:41.367Z,83.56
2016-11-19T08:10:41.411Z,82.79
2016-11-19T08:11:41.461Z,82.98
2016-11-19T08:12:41.474Z,83.46
2016-11-19T08:13:41.530Z,83.27
2016-11-19T08:14:41.702Z,82.98
2016-11-19T08:15:41.644Z,82.79
2016-11-19T08:16:41.688Z,83.27
2016-11-19T08:17:41.768Z,83.37
2016-11-19T08:18:41.783Z,83.27
2016-11-19T08:19:41.931Z,83.08
2016-11-19T08:20:41.895Z,83.27
2016-11-19T08:21:41.950Z,82.98
2016-11-19T08:22:42.011Z,82.98
2016-11-19T08:23:42.023Z,82.79
2016-11-19T08:24:42.208Z,83.37
2016-11-19T08:25:42.123Z,83.31
2016-11-19T08:26:42.172Z,83.22
2016-11-19T08:27:42.235Z,83.22
2016-11-19T08:28:42.296Z,83.79
2016-11-19T08:29:42.330Z,83.79
2016-11-19T08:30:42.350Z,84.61
2016-11-19T08:31:42.387Z,84.55
2016-11-19T08:32:42.490Z,84.42
2016-11-19T08:33:42.526Z,84.52
2016-11-19T08:34:42.545Z,84.99
2016-11-19T08:35:42.607Z,84.75
2016-11-19T08:36:42.670Z,85.13
2016-11-19T08:37:42.679Z,84.17
2016-11-19T08:38:42.724Z,84.55
2016-11-19T08:39:42.830Z,84.36
2016-11-19T08:40:42.859Z,84.46
2016-11-19T08:41:42.898Z,84.46
2016-11-19T08:42:42.960Z,83.98
2016-11-19T08:43:43.029Z,83.6
2016-11-19T08:44:43.044Z,83.69
2016-11-19T08:45:43.101Z,83.89
2016-11-19T08:46:43.124Z,83.12
2016-11-19T08:47:43.187Z,83.5
2016-11-19T08:48:43.267Z,83.54
2016-11-19T08:49:43.291Z,82.83
2016-11-19T08:50:43.335Z,82.54
2016-11-19T08:51:43.400Z,83.06
2016-11-19T08:52:43.415Z,83.03
2016-11-19T08:53:43.487Z,82.74
2016-11-19T08:54:43.533Z,83.26
2016-11-19T08:55:43.658Z,83.12
2016-11-19T08:56:43.604Z,82.74
2016-11-19T08:57:43.673Z,83.5
2016-11-19T08:58:43.718Z,83.12
2016-11-19T08:59:43.774Z,83.06
2016-11-19T09:00:43.927Z,83.16
2016-11-19T09:01:43.886Z,83.16
2016-11-19T09:02:43.949Z,82.11
2016-11-19T09:03:43.949Z,82.11
2016-11-19T09:04:44.047Z,82.59
2016-11-19T09:05:44.164Z,81.34
2016-11-19T09:06:44.121Z,81.63
2016-11-19T09:07:44.152Z,81.44
2016-11-19T09:08:44.245Z,81.25
2016-11-19T09:09:44.235Z,81.57
2016-11-19T09:10:44.322Z,81.29
2016-11-19T09:11:44.391Z,80.81
2016-11-19T09:12:44.913Z,80.37
2016-11-19T09:13:44.434Z,79.8
2016-11-19T09:14:44.489Z,79.13
2016-11-19T09:15:44.575Z,78.36
2016-11-19T09:16:44.620Z,78.07
2016-11-19T09:17:44.633Z,78.64
2016-11-19T09:18:44.681Z,78.74
2016-11-19T09:19:44.749Z,78.64
2016-11-19T09:20:44.817Z,77.21
2016-11-19T09:21:44.835Z,77.4
2016-11-19T09:22:44.879Z,77.5
2016-11-19T09:23:44.974Z,77.97
2016-11-19T09:24:45.004Z,78.07
2016-11-19T09:25:45.075Z,78.55
2016-11-19T09:26:45.121Z,78.42
2016-11-19T09:27:45.154Z,78.74
2016-11-19T09:28:45.239Z,79.47
2016-11-19T09:30:45.293Z,80.71
2016-11-19T09:31:45.486Z,80.9
2016-11-19T09:32:45.432Z,81.1
2016-11-19T09:33:45.439Z,81.73
2016-11-19T09:34:45.513Z,82.2
2016-11-19T09:35:45.563Z,82.68
2016-11-19T09:36:45.739Z,82.49
2016-11-19T09:37:45.673Z,83.54
2016-11-19T09:38:45.685Z,83.26
2016-11-19T09:39:45.729Z,84.31
2016-11-19T09:40:45.800Z,84.79
2016-11-19T09:41:45.937Z,84.88
2016-11-19T09:42:45.881Z,86.08
2016-11-19T09:43:45.930Z,86.28
2016-11-19T09:44:45.995Z,86.32
2016-11-19T09:45:46.025Z,86.32
2016-11-19T09:46:46.088Z,86.28
2016-11-19T09:47:46.127Z,86.57
2016-11-19T09:48:46.177Z,87.76
2016-11-19T09:49:46.236Z,87.81
2016-11-19T09:50:46.260Z,87.95
2016-11-19T09:51:46.308Z,88.23
2016-11-19T09:52:46.355Z,87.56
2016-11-19T09:53:46.414Z,88.76
2016-11-19T09:54:46.479Z,89.43
2016-11-19T09:55:46.528Z,88.95
2016-11-19T09:56:46.556Z,89.15
2016-11-19T09:57:46.629Z,89.24
2016-11-19T09:58:46.650Z,89.05
2016-11-19T09:59:46.703Z,89.29
2016-11-19T10:00:46.764Z,89.29
2016-11-19T10:01:46.808Z,89.58
2016-11-19T10:02:46.854Z,90.58
2016-11-19T10:03:46.937Z,90.77
2016-11-19T10:04:47.506Z,90.91
2016-11-19T10:05:47.017Z,89.95
2016-11-19T10:06:47.040Z,90.72
2016-11-19T10:07:47.177Z,90.63
2016-11-19T10:08:47.674Z,90.63
2016-11-19T10:09:47.202Z,90.05
2016-11-19T10:10:47.284Z,90.53
2016-11-19T10:11:47.283Z,89.67
2016-11-19T10:12:47.445Z,89.76
2016-11-19T10:13:47.377Z,89.29
2016-11-19T10:14:47.470Z,89.48
2016-11-19T10:15:47.482Z,89.19
2016-11-19T10:16:47.542Z,89.09
2016-11-19T10:17:47.563Z,89.15
2016-11-19T10:18:47.659Z,89.09
2016-11-19T10:19:47.716Z,90.05
2016-11-19T10:20:47.747Z,89.86
2016-11-19T10:21:47.764Z,89
2016-11-19T10:22:47.834Z,89.67
2016-11-19T10:23:47.875Z,88.81
2016-11-19T10:24:47.944Z,89.09
2016-11-19T10:25:47.996Z,90.24
2016-11-19T10:26:48.037Z,89.91
2016-11-19T10:27:48.056Z,88.13
2016-11-19T10:28:48.631Z,88.09
2016-11-19T10:29:48.141Z,88
2016-11-19T10:30:48.215Z,88.48
2016-11-19T10:31:48.302Z,86.9
2016-11-19T10:32:48.312Z,87.14
2016-11-19T10:33:48.351Z,86.94
2016-11-19T10:34:48.410Z,88
2016-11-19T10:35:48.465Z,86.47
2016-11-19T10:36:48.503Z,87.23
2016-11-19T10:37:48.531Z,88.09
2016-11-19T10:38:48.599Z,88.48
2016-11-19T10:39:48.640Z,88.9
2016-11-19T10:40:48.735Z,88.04
2016-11-19T10:41:48.723Z,88.04
2016-11-19T10:42:48.787Z,88.04
2016-11-19T10:43:48.926Z,87.66
2016-11-19T10:44:48.868Z,87.03
2016-11-19T10:45:49.440Z,87.41
2016-11-19T10:46:48.994Z,86.65
2016-11-19T10:47:49.054Z,85.31
2016-11-19T10:48:49.223Z,87.08
2016-11-19T10:49:49.149Z,87.18
2016-11-19T10:50:49.220Z,86.99
2016-11-19T10:51:49.268Z,87.37
2016-11-19T10:52:49.268Z,87.18
2016-11-19T10:53:49.440Z,86.99
2016-11-19T10:54:49.378Z,87.37
2016-11-19T10:55:49.404Z,87.37
2016-11-19T10:56:49.532Z,87.56
2016-11-19T10:57:49.518Z,88.62
2016-11-19T10:58:49.561Z,88.23
2016-11-19T10:59:49.624Z,89.62
2016-11-19T11:00:49.649Z,87.99
2016-11-19T11:01:49.717Z,88.13
2016-11-19T11:02:49.745Z,85.35
2016-11-19T11:03:49.816Z,85.25
2016-11-19T11:04:49.880Z,85.54
2016-11-19T11:05:49.899Z,86.6
2016-11-19T11:06:49.958Z,86.6
2016-11-19T11:07:50.002Z,85.88
2016-11-19T11:08:50.064Z,86.5
2016-11-19T11:09:50.108Z,86.21
2016-11-19T11:10:50.155Z,86.88
2016-11-19T11:11:50.222Z,85.83
2016-11-19T11:12:50.254Z,87.27
2016-11-19T11:13:50.308Z,86.98
2016-11-19T11:14:50.347Z,87.08
2016-11-19T11:15:50.432Z,85.25
2016-11-19T11:16:50.961Z,86.41
2016-11-19T11:17:50.530Z,85.45
2016-11-19T11:18:50.544Z,85.35
2016-11-19T11:19:50.608Z,84.3
2016-11-19T11:20:50.647Z,84.45
2016-11-19T11:21:50.703Z,84.74
2016-11-19T11:22:50.781Z,84.83
2016-11-19T11:23:51.321Z,84.83
2016-11-19T11:24:50.951Z,85.21
2016-11-19T11:25:50.940Z,84.92
2016-11-19T11:26:50.948Z,85.5
2016-11-19T11:27:51.011Z,85.21
2016-11-19T11:28:51.623Z,86.08
2016-11-19T11:29:51.209Z,85.21
2016-11-19T11:30:51.133Z,85.88
2016-11-19T11:31:51.198Z,86.55
2016-11-19T11:32:51.250Z,85.88
2016-11-19T11:33:51.259Z,86.36
2016-11-19T11:34:51.424Z,86.27
2016-11-19T11:35:51.356Z,85.69
2016-11-19T11:36:51.430Z,85.31
2016-11-19T11:37:51.475Z,85.08
2016-11-19T11:38:51.536Z,85.21
2016-11-19T11:39:51.575Z,84.35
2016-11-19T11:40:51.623Z,84.98
2016-11-19T11:41:51.655Z,85.08
2016-11-19T11:42:51.756Z,84.59
2016-11-19T11:43:51.791Z,84.98
2016-11-19T11:44:51.827Z,85.02
2016-11-19T11:45:51.856Z,85.36
2016-11-19T11:46:51.910Z,84.69
2016-11-19T11:47:51.986Z,84.64
2016-11-19T11:48:52.026Z,84.35
2016-11-19T11:49:52.063Z,84.26
2016-11-19T11:50:52.096Z,83.49
2016-11-19T11:51:52.181Z,83.3
2016-11-19T11:52:52.216Z,83.2
2016-11-19T11:53:52.228Z,81.57
2016-11-19T11:54:52.299Z,81.29
2016-11-19T11:55:52.460Z,82.34
2016-11-19T11:56:52.902Z,83.2
2016-11-19T11:57:52.432Z,83.2
2016-11-19T11:58:52.496Z,83.05
2016-11-19T11:59:52.537Z,82.48
2016-11-19T12:00:52.708Z,81.9
2016-11-19T12:01:52.649Z,81.52
2016-11-19T12:02:52.704Z,81.62
2016-11-19T12:03:52.774Z,80.47
2016-11-19T12:04:52.790Z,80.08
2016-11-19T12:05:53.463Z,80.43
2016-11-19T12:06:52.872Z,81.04
2016-11-19T12:07:52.940Z,80.27
2016-11-19T12:08:53.021Z,78.36
2016-11-19T12:09:53.026Z,76.06
2016-11-19T12:10:53.083Z,75.77
2016-11-19T12:11:53.120Z,75.29
2016-11-19T12:12:53.194Z,75.77
2016-11-19T12:13:53.219Z,75.52
2016-11-19T12:14:53.798Z,77.34
2016-11-19T12:15:53.308Z,75.81
2016-11-19T12:16:53.392Z,73.65
2016-11-19T12:17:53.424Z,72.27
2016-11-19T12:18:53.488Z,71.02
2016-11-19T12:19:53.497Z,71.5
2016-11-19T12:20:53.565Z,71.98
2016-11-19T12:21:53.611Z,74.43
2016-11-19T12:22:54.208Z,73.66
2016-11-19T12:23:53.700Z,72.13
2016-11-19T12:24:53.781Z,72.03
2016-11-19T12:25:53.814Z,70.06
2016-11-19T12:26:53.977Z,70.15
2016-11-19T12:27:53.911Z,70.06
2016-11-19T12:28:53.987Z,69.39
2016-11-19T12:29:54.013Z,69.39
2016-11-19T12:30:54.106Z,68.91
2016-11-19T12:31:54.239Z,70.64
2016-11-19T12:32:54.158Z,70.92
2016-11-19T12:33:54.221Z,69.48
2016-11-19T12:34:54.246Z,70.15
2016-11-19T12:35:54.330Z,69.04
2016-11-19T12:36:54.475Z,69.52
2016-11-19T12:37:54.428Z,69.52
2016-11-19T12:38:54.452Z,69.96
2016-11-19T12:39:54.485Z,70.25
2016-11-19T12:40:54.558Z,70.06
2016-11-19T12:41:54.640Z,70.64
2016-11-19T12:42:54.653Z,71.02
2016-11-19T12:43:54.690Z,71.02
2016-11-19T12:44:55.278Z,71.21
2016-11-19T12:45:54.790Z,69.48
2016-11-19T12:46:54.833Z,69.48
2016-11-19T12:47:54.932Z,69.93
2016-11-19T12:48:54.970Z,70.98
2016-11-19T12:49:54.986Z,69.83
2016-11-19T12:50:55.047Z,70.21
2016-11-19T12:51:55.120Z,70.31
2016-11-19T12:52:55.186Z,70.31
2016-11-19T12:53:55.219Z,70.03
2016-11-19T12:54:55.275Z,69.93
2016-11-19T12:55:55.308Z,70.44
2016-11-19T12:56:55.368Z,70.25